| time (UTC) | temp F | wind direction | speed knots | gust knots | rain 1hr in | rain 24hr in | rain mn in | humidity % | barometer mb |
| 20260510083100 | 50 | 0 | 0.0 | 0.0 | 0.00 | 0.03 | 0.03 | 81 | 1031.1 |
| 20260510081552 | 52 | 0 | 0.0 | 0.0 | 0.00 | 0.03 | 0.03 | 80 | 1030.9 |
| 20260510080057 | 53 | 0 | 0.0 | 0.0 | 0.00 | 0.03 | 0.03 | 77 | 1030.9 |
| 20260510074602 | 55 | 0 | 0.0 | 0.0 | 0.00 | 0.03 | 0.03 | 75 | 1030.7 |
| 20260510073050 | 56 | 0 | 0.0 | 1.7 | 0.00 | 0.03 | 0.03 | 75 | 1030.6 |
| 20260510071557 | 57 | 0 | 0.0 | 1.7 | 0.00 | 0.03 | 0.03 | 74 | 1030.6 |
| 20260510070043 | 58 | 0 | 0.0 | 2.6 | 0.00 | 0.03 | 0.03 | 72 | 1030.4 |
| 20260510064607 | 59 | 0 | 0.0 | 1.7 | 0.00 | 0.03 | 0.03 | 70 | 1030.3 |
| 20260510063056 | 60 | 0 | 0.0 | 0.0 | 0.00 | 0.03 | 0.03 | 70 | 1030.1 |
| 20260510061549 | 61 | 0 | 1.7 | 7.8 | 0.00 | 0.03 | 0.03 | 68 | 1030.2 |
| 20260510060055 | 61 | 124 | 0.9 | 5.2 | 0.00 | 0.03 | 0.03 | 67 | 1030.1 |
| 20260510054545 | 63 | 0 | 0.0 | 2.6 | 0.00 | 0.03 | 0.03 | 65 | 1030.0 |
| 20260510053049 | 62 | 0 | 0.0 | 5.2 | 0.00 | 0.03 | 0.03 | 67 | 1029.9 |
| 20260510051552 | 62 | 123 | 0.9 | 3.5 | 0.00 | 0.03 | 0.03 | 67 | 1029.8 |
| 20260510050046 | 62 | 126 | 1.7 | 4.3 | 0.00 | 0.03 | 0.03 | 68 | 1029.8 |
| 20260510044542 | 61 | 0 | 0.9 | 5.2 | 0.00 | 0.03 | 0.03 | 68 | 1029.8 |
| 20260510043050 | 61 | 0 | 0.9 | 5.2 | 0.00 | 0.03 | 0.03 | 69 | 1029.8 |
| 20260510041605 | 61 | 151 | 1.7 | 5.2 | 0.00 | 0.03 | 0.03 | 70 | 1029.7 |
| 20260510040046 | 61 | 198 | 0.9 | 4.3 | 0.00 | 0.03 | 0.03 | 71 | 1029.9 |
| 20260510034545 | 60 | 139 | 0.9 | 5.2 | 0.00 | 0.03 | 0.03 | 71 | 1030.1 |
| 20260510033043 | 60 | 161 | 1.7 | 5.2 | 0.00 | 0.03 | 0.03 | 72 | 1030.1 |
| 20260510031541 | 60 | 0 | 0.0 | 5.2 | 0.00 | 0.03 | 0.03 | 73 | 1030.2 |
| 20260510030049 | 59 | 0 | 0.0 | 3.5 | 0.00 | 0.03 | 0.03 | 73 | 1030.3 |
| 20260510024556 | 59 | 0 | 0.0 | 6.1 | 0.00 | 0.03 | 0.03 | 75 | 1030.4 |
| 20260510023044 | 59 | 163 | 0.0 | 6.1 | 0.00 | 0.03 | 0.03 | 76 | 1030.7 |
| 20260510021542 | 58 | 0 | 0.9 | 4.3 | 0.00 | 0.03 | 0.03 | 75 | 1030.8 |
| 20260510020052 | 58 | 188 | 0.9 | 7.0 | 0.00 | 0.03 | 0.03 | 77 | 1031.0 |
| 20260510014553 | 58 | 0 | 0.0 | 6.1 | 0.00 | 0.04 | 0.03 | 79 | 1031.1 |
| 20260510013055 | 57 | 215 | 0.0 | 5.2 | 0.00 | 0.04 | 0.03 | 81 | 1031.3 |
| 20260510011549 | 57 | 197 | 0.0 | 5.2 | 0.00 | 0.04 | 0.03 | 83 | 1031.4 |
| 20260510010059 | 56 | 0 | 0.0 | 4.3 | 0.00 | 0.04 | 0.03 | 86 | 1031.4 |
| 20260510004546 | 55 | 261 | 1.7 | 6.1 | 0.00 | 0.04 | 0.03 | 89 | 1031.4 |
| 20260510003048 | 55 | 295 | 1.7 | 5.2 | 0.00 | 0.04 | 0.03 | 93 | 1031.4 |
| 20260510001549 | 54 | 194 | 0.0 | 4.3 | 0.00 | 0.04 | 0.03 | 94 | 1031.5 |
| 20260510000053 | 54 | 201 | 0.0 | 4.3 | 0.00 | 0.04 | 0.03 | 95 | 1031.5 |
| 20260509234600 | 54 | 200 | 0.9 | 4.3 | 0.00 | 0.04 | 0.03 | 96 | 1031.4 |
| 20260509233046 | 54 | 212 | 1.7 | 3.5 | 0.00 | 0.04 | 0.03 | 96 | 1031.4 |
| 20260509231550 | 53 | 0 | 0.0 | 2.6 | 0.00 | 0.04 | 0.03 | 96 | 1031.3 |
| 20260509230048 | 53 | 0 | 0.0 | 1.7 | 0.00 | 0.04 | 0.03 | 96 | 1031.2 |
| 20260509224551 | 53 | 0 | 0.0 | 0.0 | 0.00 | 0.04 | 0.03 | 96 | 1031.1 |
| 20260509223049 | 52 | 0 | 0.0 | 0.0 | 0.00 | 0.04 | 0.03 | 96 | 1031.1 |
| 20260509221603 | 52 | 0 | 0.0 | 0.9 | 0.00 | 0.04 | 0.03 | 96 | 1030.9 |
| 20260509220059 | 52 | 0 | 0.0 | 0.0 | 0.00 | 0.04 | 0.03 | 96 | 1030.8 |
| 20260509214548 | 52 | 0 | 0.0 | 1.7 | 0.00 | 0.04 | 0.03 | 96 | 1030.7 |
| 20260509213049 | 52 | 0 | 0.0 | 0.0 | 0.00 | 0.04 | 0.03 | 96 | 1030.5 |
| 20260509211547 | 52 | 0 | 0.0 | 3.5 | 0.01 | 0.04 | 0.03 | 96 | 1030.2 |
| 20260509210055 | 52 | 197 | 0.9 | 5.2 | 0.01 | 0.04 | 0.03 | 96 | 1030.1 |
| 20260509204547 | 52 | 0 | 0.0 | 3.5 | 0.02 | 0.04 | 0.03 | 96 | 1030.0 |
| 20260509203058 | 52 | 0 | 0.0 | 1.7 | 0.01 | 0.03 | 0.03 | 96 | 1029.9 |
| 20260509201542 | 52 | 201 | 0.0 | 3.5 | 0.00 | 0.03 | 0.02 | 96 | 1029.7 |
| 20260509200047 | 52 | 227 | 0.0 | 1.7 | 0.00 | 0.03 | 0.02 | 96 | 1029.6 |
| 20260509194545 | 52 | 186 | 0.0 | 0.0 | 0.00 | 0.03 | 0.01 | 95 | 1029.5 |
| 20260509193059 | 52 | 198 | 0.9 | 4.3 | 0.00 | 0.03 | 0.01 | 96 | 1029.3 |
| 20260509191607 | 53 | 236 | 1.7 | 4.3 | 0.00 | 0.03 | 0.01 | 96 | 1029.2 |
| 20260509184547 | 53 | 246 | 1.7 | 7.0 | 0.00 | 0.03 | 0.01 | 96 | 1028.8 |
| 20260509183048 | 53 | 209 | 0.9 | 6.1 | 0.00 | 0.03 | 0.00 | 95 | 1028.7 |
| 20260509181544 | 53 | 0 | 0.0 | 4.3 | 0.00 | 0.03 | 0.00 | 95 | 1028.6 |
| 20260509180044 | 53 | 200 | 2.6 | 6.1 | 0.00 | 0.03 | 0.00 | 95 | 1028.5 |
| 20260509174550 | 53 | 0 | 0.0 | 2.6 | 0.00 | 0.03 | 0.00 | 95 | 1028.4 |
| 20260509173052 | 53 | 0 | 0.9 | 3.5 | 0.00 | 0.03 | 0.00 | 95 | 1028.6 |
| 20260509171559 | 53 | 0 | 0.0 | 5.2 | 0.00 | 0.03 | 0.00 | 95 | 1028.6 |
| 20260509170047 | 53 | 209 | 0.0 | 2.6 | 0.00 | 0.03 | 0.00 | 95 | 1028.6 |
| 20260509164550 | 53 | 0 | 0.0 | 2.6 | 0.00 | 0.03 | 0.00 | 95 | 1028.7 |
| 20260509163053 | 53 | 181 | 0.0 | 5.2 | 0.00 | 0.03 | 0.00 | 95 | 1028.8 |
| 20260509161547 | 53 | 227 | 1.7 | 4.3 | 0.00 | 0.03 | 0.00 | 96 | 1028.9 |
| 20260509160050 | 53 | 182 | 0.0 | 3.5 | 0.00 | 0.03 | 0.00 | 95 | 1028.9 |
| 20260509154548 | 53 | 0 | 0.9 | 6.1 | 0.00 | 0.03 | 0.00 | 95 | 1028.7 |
| 20260509153045 | 53 | 215 | 0.9 | 4.3 | 0.00 | 0.03 | 0.00 | 96 | 1028.8 |
| 20260509151542 | 53 | 0 | 0.0 | 2.6 | 0.00 | 0.03 | 0.00 | 96 | 1028.8 |
| 20260509150049 | 52 | 207 | 0.9 | 3.5 | 0.00 | 0.03 | 0.00 | 96 | 1028.8 |
| 20260509144550 | 52 | 0 | 0.0 | 0.0 | 0.00 | 0.02 | 0.00 | 95 | 1028.8 |
| 20260509143048 | 52 | 0 | 0.0 | 0.0 | 0.00 | 0.02 | 0.00 | 95 | 1028.8 |
| 20260509141550 | 52 | 0 | 0.0 | 0.0 | 0.00 | 0.02 | 0.00 | 95 | 1028.8 |
| 20260509140051 | 52 | 0 | 0.0 | 0.0 | 0.00 | 0.02 | 0.00 | 95 | 1028.9 |
| 20260509134550 | 51 | 0 | 0.0 | 0.0 | 0.00 | 0.02 | 0.02 | 95 | 1028.9 |
| 20260509133046 | 51 | 0 | 0.0 | 0.0 | 0.00 | 0.02 | 0.02 | 95 | 1029.0 |
| 20260509131601 | 51 | 0 | 0.0 | 0.0 | 0.00 | 0.02 | 0.02 | 95 | 1029.1 |
| 20260509130059 | 51 | 0 | 0.0 | 0.0 | 0.00 | 0.02 | 0.02 | 95 | 1029.1 |
| 20260509124545 | 50 | 0 | 0.0 | 0.0 | 0.00 | 0.02 | 0.02 | 95 | 1029.1 |
| 20260509123050 | 50 | 0 | 0.0 | 0.0 | 0.00 | 0.02 | 0.02 | 94 | 1029.0 |
| 20260509121550 | 50 | 0 | 0.0 | 0.0 | 0.00 | 0.02 | 0.02 | 94 | 1028.9 |
| 20260509120048 | 50 | 0 | 0.0 | 0.0 | 0.00 | 0.02 | 0.02 | 94 | 1029.1 |
| 20260509114604 | 49 | 0 | 0.0 | 0.0 | 0.00 | 0.02 | 0.02 | 94 | 1029.1 |
| 20260509113047 | 49 | 0 | 0.0 | 0.0 | 0.00 | 0.02 | 0.02 | 94 | 1028.9 |
| 20260509111548 | 49 | 0 | 0.0 | 0.0 | 0.00 | 0.02 | 0.02 | 94 | 1028.8 |
| 20260509104549 | 48 | 0 | 0.0 | 0.0 | 0.00 | 0.02 | 0.02 | 93 | 1028.8 |
| 20260509103050 | 47 | 0 | 0.0 | 0.0 | 0.00 | 0.02 | 0.02 | 92 | 1028.7 |
| 20260509101547 | 47 | 0 | 0.0 | 0.0 | 0.00 | 0.02 | 0.02 | 91 | 1028.6 |
| 20260509100045 | 47 | 0 | 0.0 | 0.0 | 0.00 | 0.02 | 0.02 | 90 | 1028.4 |
| 20260509094552 | 48 | 0 | 0.0 | 0.0 | 0.00 | 0.02 | 0.02 | 89 | 1028.5 |
| 20260509093049 | 49 | 0 | 0.0 | 0.0 | 0.00 | 0.02 | 0.02 | 89 | 1028.4 |
| 20260509091546 | 50 | 0 | 0.0 | 0.0 | 0.00 | 0.02 | 0.02 | 88 | 1028.4 |
| 20260509090049 | 51 | 0 | 0.0 | 0.0 | 0.00 | 0.02 | 0.02 | 88 | 1028.3 |
| 20260509084546 | 52 | 0 | 0.0 | 0.0 | 0.00 | 0.02 | 0.02 | 87 | 1028.2 |